sensor_id;sensor_type;location;lat;lon;timestamp;P1;durP1;ratioP1;P2;durP2;ratioP2
12141;SDS011;6134;59.284;18.022;2023-04-01T00:01:17;2.00;;;1.40;;
12141;SDS011;6134;59.284;18.022;2023-04-01T00:03:47;2.85;;;1.38;;
12141;SDS011;6134;59.284;18.022;2023-04-01T00:06:17;1.23;;;1.00;;
12141;SDS011;6134;59.284;18.022;2023-04-01T00:08:46;3.00;;;1.30;;
12141;SDS011;6134;59.284;18.022;2023-04-01T00:11:14;1.73;;;1.40;;
12141;SDS011;6134;59.284;18.022;2023-04-01T00:13:46;2.65;;;1.35;;
12141;SDS011;6134;59.284;18.022;2023-04-01T00:16:15;1.92;;;1.30;;
12141;SDS011;6134;59.284;18.022;2023-04-01T00:18:49;1.27;;;1.17;;
12141;SDS011;6134;59.284;18.022;2023-04-01T00:21:19;2.22;;;1.30;;
12141;SDS011;6134;59.284;18.022;2023-04-01T00:23:48;3.17;;;1.58;;
12141;SDS011;6134;59.284;18.022;2023-04-01T00:26:17;1.77;;;1.67;;
12141;SDS011;6134;59.284;18.022;2023-04-01T00:28:48;1.48;;;1.20;;
12141;SDS011;6134;59.284;18.022;2023-04-01T00:31:17;3.13;;;1.40;;
12141;SDS011;6134;59.284;18.022;2023-04-01T00:33:47;3.25;;;1.35;;
12141;SDS011;6134;59.284;18.022;2023-04-01T00:36:17;2.08;;;1.50;;
12141;SDS011;6134;59.284;18.022;2023-04-01T00:38:48;1.75;;;1.40;;
12141;SDS011;6134;59.284;18.022;2023-04-01T00:41:17;4.22;;;1.15;;
12141;SDS011;6134;59.284;18.022;2023-04-01T00:43:48;1.40;;;1.30;;
12141;SDS011;6134;59.284;18.022;2023-04-01T00:46:17;3.40;;;1.40;;
12141;SDS011;6134;59.284;18.022;2023-04-01T00:48:47;1.45;;;1.15;;
12141;SDS011;6134;59.284;18.022;2023-04-01T00:51:18;2.40;;;1.33;;
12141;SDS011;6134;59.284;18.022;2023-04-01T00:53:49;2.13;;;1.20;;
12141;SDS011;6134;59.284;18.022;2023-04-01T00:56:18;2.55;;;1.40;;
12141;SDS011;6134;59.284;18.022;2023-04-01T00:58:49;1.95;;;1.33;;
12141;SDS011;6134;59.284;18.022;2023-04-01T01:01:18;1.88;;;1.20;;
12141;SDS011;6134;59.284;18.022;2023-04-01T01:03:49;1.85;;;1.40;;
12141;SDS011;6134;59.284;18.022;2023-04-01T01:06:22;1.77;;;1.20;;
12141;SDS011;6134;59.284;18.022;2023-04-01T01:08:56;1.60;;;1.50;;
12141;SDS011;6134;59.284;18.022;2023-04-01T01:11:32;1.65;;;1.52;;
12141;SDS011;6134;59.284;18.022;2023-04-01T01:14:11;1.48;;;1.23;;
12141;SDS011;6134;59.284;18.022;2023-04-01T01:16:43;2.13;;;1.83;;
12141;SDS011;6134;59.284;18.022;2023-04-01T01:19:18;2.53;;;1.30;;
12141;SDS011;6134;59.284;18.022;2023-04-01T01:21:57;2.13;;;1.05;;
12141;SDS011;6134;59.284;18.022;2023-04-01T01:24:37;1.98;;;1.40;;
12141;SDS011;6134;59.284;18.022;2023-04-01T01:27:10;1.50;;;1.23;;
12141;SDS011;6134;59.284;18.022;2023-04-01T01:29:44;2.33;;;1.40;;
12141;SDS011;6134;59.284;18.022;2023-04-01T01:32:17;2.05;;;1.33;;
12141;SDS011;6134;59.284;18.022;2023-04-01T01:34:49;2.50;;;1.35;;
12141;SDS011;6134;59.284;18.022;2023-04-01T01:37:22;2.20;;;1.50;;
12141;SDS011;6134;59.284;18.022;2023-04-01T01:39:52;3.55;;;1.30;;
12141;SDS011;6134;59.284;18.022;2023-04-01T01:42:22;1.95;;;1.45;;
12141;SDS011;6134;59.284;18.022;2023-04-01T01:44:53;4.82;;;1.30;;
12141;SDS011;6134;59.284;18.022;2023-04-01T01:47:23;1.85;;;1.30;;
12141;SDS011;6134;59.284;18.022;2023-04-01T01:49:53;3.17;;;1.38;;
12141;SDS011;6134;59.284;18.022;2023-04-01T01:52:24;1.85;;;1.27;;
12141;SDS011;6134;59.284;18.022;2023-04-01T01:54:53;2.67;;;1.30;;
12141;SDS011;6134;59.284;18.022;2023-04-01T01:57:26;2.85;;;1.38;;
12141;SDS011;6134;59.284;18.022;2023-04-01T01:59:59;1.67;;;1.23;;
12141;SDS011;6134;59.284;18.022;2023-04-01T02:02:38;1.67;;;1.25;;
12141;SDS011;6134;59.284;18.022;2023-04-01T02:05:08;1.35;;;1.25;;
12141;SDS011;6134;59.284;18.022;2023-04-01T02:07:39;2.25;;;1.50;;
12141;SDS011;6134;59.284;18.022;2023-04-01T02:10:11;1.75;;;1.30;;
12141;SDS011;6134;59.284;18.022;2023-04-01T02:12:40;1.92;;;1.20;;
12141;SDS011;6134;59.284;18.022;2023-04-01T02:15:11;2.20;;;1.40;;
12141;SDS011;6134;59.284;18.022;2023-04-01T02:17:42;2.15;;;1.40;;
12141;SDS011;6134;59.284;18.022;2023-04-01T02:20:13;3.05;;;1.25;;
12141;SDS011;6134;59.284;18.022;2023-04-01T02:22:46;3.92;;;1.30;;
12141;SDS011;6134;59.284;18.022;2023-04-01T02:25:17;1.35;;;1.13;;
12141;SDS011;6134;59.284;18.022;2023-04-01T02:27:47;2.88;;;1.15;;
12141;SDS011;6134;59.284;18.022;2023-04-01T02:30:16;2.35;;;1.23;;
12141;SDS011;6134;59.284;18.022;2023-04-01T02:32:45;1.50;;;1.08;;
12141;SDS011;6134;59.284;18.022;2023-04-01T02:35:15;1.73;;;1.25;;
12141;SDS011;6134;59.284;18.022;2023-04-01T02:37:48;1.92;;;1.27;;
12141;SDS011;6134;59.284;18.022;2023-04-01T02:40:17;1.33;;;1.20;;
12141;SDS011;6134;59.284;18.022;2023-04-01T02:42:46;1.20;;;1.05;;
12141;SDS011;6134;59.284;18.022;2023-04-01T02:45:15;1.33;;;1.13;;
12141;SDS011;6134;59.284;18.022;2023-04-01T02:47:44;2.05;;;1.13;;
12141;SDS011;6134;59.284;18.022;2023-04-01T02:50:13;2.67;;;1.10;;
12141;SDS011;6134;59.284;18.022;2023-04-01T02:52:41;1.13;;;0.90;;
12141;SDS011;6134;59.284;18.022;2023-04-01T02:55:12;1.27;;;1.00;;
12141;SDS011;6134;59.284;18.022;2023-04-01T02:57:41;2.10;;;1.13;;
12141;SDS011;6134;59.284;18.022;2023-04-01T03:00:10;1.02;;;0.90;;
12141;SDS011;6134;59.284;18.022;2023-04-01T03:02:39;2.78;;;1.33;;
12141;SDS011;6134;59.284;18.022;2023-04-01T03:05:08;1.95;;;1.35;;
12141;SDS011;6134;59.284;18.022;2023-04-01T03:07:37;1.40;;;1.20;;
12141;SDS011;6134;59.284;18.022;2023-04-01T03:10:06;1.25;;;1.15;;
12141;SDS011;6134;59.284;18.022;2023-04-01T03:12:36;2.13;;;1.08;;
12141;SDS011;6134;59.284;18.022;2023-04-01T03:15:06;3.03;;;0.98;;
12141;SDS011;6134;59.284;18.022;2023-04-01T03:17:38;1.30;;;1.13;;
12141;SDS011;6134;59.284;18.022;2023-04-01T03:20:07;1.40;;;1.13;;
12141;SDS011;6134;59.284;18.022;2023-04-01T03:22:37;2.03;;;1.40;;
12141;SDS011;6134;59.284;18.022;2023-04-01T03:25:08;1.83;;;1.05;;
12141;SDS011;6134;59.284;18.022;2023-04-01T03:27:39;1.75;;;1.20;;
12141;SDS011;6134;59.284;18.022;2023-04-01T03:30:08;2.08;;;1.45;;
12141;SDS011;6134;59.284;18.022;2023-04-01T03:32:46;1.30;;;1.00;;
12141;SDS011;6134;59.284;18.022;2023-04-01T03:35:15;4.25;;;1.30;;
12141;SDS011;6134;59.284;18.022;2023-04-01T03:37:45;2.83;;;1.20;;
12141;SDS011;6134;59.284;18.022;2023-04-01T03:40:13;1.90;;;1.05;;
12141;SDS011;6134;59.284;18.022;2023-04-01T03:42:46;1.98;;;1.08;;
12141;SDS011;6134;59.284;18.022;2023-04-01T03:45:15;1.88;;;1.35;;
12141;SDS011;6134;59.284;18.022;2023-04-01T03:47:43;1.27;;;1.10;;
12141;SDS011;6134;59.284;18.022;2023-04-01T03:50:12;4.35;;;1.50;;
12141;SDS011;6134;59.284;18.022;2023-04-01T03:52:41;2.40;;;1.10;;
12141;SDS011;6134;59.284;18.022;2023-04-01T03:55:10;1.40;;;1.27;;
12141;SDS011;6134;59.284;18.022;2023-04-01T03:57:39;1.42;;;1.13;;
12141;SDS011;6134;59.284;18.022;2023-04-01T04:00:17;5.90;;;1.35;;
12141;SDS011;6134;59.284;18.022;2023-04-01T04:02:51;1.30;;;1.20;;
12141;SDS011;6134;59.284;18.022;2023-04-01T04:05:26;1.50;;;1.10;;
12141;SDS011;6134;59.284;18.022;2023-04-01T04:07:55;1.23;;;1.02;;
12141;SDS011;6134;59.284;18.022;2023-04-01T04:10:24;2.47;;;1.30;;
12141;SDS011;6134;59.284;18.022;2023-04-01T04:12:53;2.13;;;1.20;;
12141;SDS011;6134;59.284;18.022;2023-04-01T04:15:25;3.90;;;1.17;;
12141;SDS011;6134;59.284;18.022;2023-04-01T04:17:53;2.45;;;1.30;;
12141;SDS011;6134;59.284;18.022;2023-04-01T04:20:22;2.72;;;1.20;;
12141;SDS011;6134;59.284;18.022;2023-04-01T04:22:51;4.40;;;1.02;;
12141;SDS011;6134;59.284;18.022;2023-04-01T04:25:20;3.80;;;1.20;;
12141;SDS011;6134;59.284;18.022;2023-04-01T04:27:48;1.42;;;1.20;;
12141;SDS011;6134;59.284;18.022;2023-04-01T04:30:19;1.90;;;1.40;;
12141;SDS011;6134;59.284;18.022;2023-04-01T04:32:49;1.83;;;1.13;;
12141;SDS011;6134;59.284;18.022;2023-04-01T04:35:18;1.77;;;1.20;;
12141;SDS011;6134;59.284;18.022;2023-04-01T04:37:46;3.33;;;1.30;;
12141;SDS011;6134;59.284;18.022;2023-04-01T04:40:16;1.90;;;1.23;;
12141;SDS011;6134;59.284;18.022;2023-04-01T04:42:45;3.50;;;1.20;;
12141;SDS011;6134;59.284;18.022;2023-04-01T04:45:15;2.83;;;1.20;;
12141;SDS011;6134;59.284;18.022;2023-04-01T04:47:53;1.98;;;1.30;;
12141;SDS011;6134;59.284;18.022;2023-04-01T04:50:23;1.65;;;0.80;;
12141;SDS011;6134;59.284;18.022;2023-04-01T04:52:52;2.13;;;1.23;;
12141;SDS011;6134;59.284;18.022;2023-04-01T04:55:21;1.83;;;1.20;;
12141;SDS011;6134;59.284;18.022;2023-04-01T04:58:08;2.03;;;0.93;;
12141;SDS011;6134;59.284;18.022;2023-04-01T05:00:40;3.25;;;1.17;;
12141;SDS011;6134;59.284;18.022;2023-04-01T05:03:18;1.40;;;1.17;;
12141;SDS011;6134;59.284;18.022;2023-04-01T05:05:48;2.63;;;1.10;;
12141;SDS011;6134;59.284;18.022;2023-04-01T05:08:17;2.30;;;1.10;;
12141;SDS011;6134;59.284;18.022;2023-04-01T05:10:46;1.40;;;1.08;;
12141;SDS011;6134;59.284;18.022;2023-04-01T05:13:15;2.95;;;1.30;;
12141;SDS011;6134;59.284;18.022;2023-04-01T05:15:46;3.83;;;1.10;;
12141;SDS011;6134;59.284;18.022;2023-04-01T05:18:15;2.72;;;1.73;;
12141;SDS011;6134;59.284;18.022;2023-04-01T05:20:50;1.80;;;1.00;;
12141;SDS011;6134;59.284;18.022;2023-04-01T05:23:19;2.15;;;1.17;;
12141;SDS011;6134;59.284;18.022;2023-04-01T05:25:48;1.95;;;1.20;;
12141;SDS011;6134;59.284;18.022;2023-04-01T05:28:18;1.75;;;1.13;;
12141;SDS011;6134;59.284;18.022;2023-04-01T05:30:47;3.17;;;1.27;;
12141;SDS011;6134;59.284;18.022;2023-04-01T05:33:29;2.15;;;1.00;;
12141;SDS011;6134;59.284;18.022;2023-04-01T05:36:06;1.88;;;1.10;;
12141;SDS011;6134;59.284;18.022;2023-04-01T05:38:35;1.52;;;1.20;;
12141;SDS011;6134;59.284;18.022;2023-04-01T05:41:07;3.47;;;1.00;;
12141;SDS011;6134;59.284;18.022;2023-04-01T05:43:39;2.53;;;1.00;;
12141;SDS011;6134;59.284;18.022;2023-04-01T05:46:31;0.95;;;0.95;;
12141;SDS011;6134;59.284;18.022;2023-04-01T05:49:10;0.80;;;0.80;;
12141;SDS011;6134;59.284;18.022;2023-04-01T05:51:41;1.52;;;0.98;;
12141;SDS011;6134;59.284;18.022;2023-04-01T05:54:09;1.20;;;0.98;;
12141;SDS011;6134;59.284;18.022;2023-04-01T05:56:38;1.95;;;1.02;;
12141;SDS011;6134;59.284;18.022;2023-04-01T05:59:09;1.50;;;1.08;;
12141;SDS011;6134;59.284;18.022;2023-04-01T06:01:38;2.53;;;1.10;;
12141;SDS011;6134;59.284;18.022;2023-04-01T06:04:09;3.20;;;1.10;;
12141;SDS011;6134;59.284;18.022;2023-04-01T06:06:38;1.50;;;1.08;;
12141;SDS011;6134;59.284;18.022;2023-04-01T06:09:13;1.98;;;0.98;;
12141;SDS011;6134;59.284;18.022;2023-04-01T06:11:56;1.92;;;1.17;;
12141;SDS011;6134;59.284;18.022;2023-04-01T06:14:28;3.70;;;1.42;;
12141;SDS011;6134;59.284;18.022;2023-04-01T06:17:12;2.00;;;1.35;;
12141;SDS011;6134;59.284;18.022;2023-04-01T06:19:47;2.03;;;1.30;;
12141;SDS011;6134;59.284;18.022;2023-04-01T06:22:24;0.80;;;0.80;;
12141;SDS011;6134;59.284;18.022;2023-04-01T06:24:59;1.92;;;1.17;;
12141;SDS011;6134;59.284;18.022;2023-04-01T06:27:45;2.85;;;1.30;;
12141;SDS011;6134;59.284;18.022;2023-04-01T06:30:30;2.20;;;1.30;;
12141;SDS011;6134;59.284;18.022;2023-04-01T06:33:08;4.30;;;1.40;;
12141;SDS011;6134;59.284;18.022;2023-04-01T06:35:44;1.55;;;1.23;;
12141;SDS011;6134;59.284;18.022;2023-04-01T06:43:52;1.67;;;1.20;;
12141;SDS011;6134;59.284;18.022;2023-04-01T06:47:00;0.90;;;0.82;;
12141;SDS011;6134;59.284;18.022;2023-04-01T06:50:05;2.08;;;1.10;;
12141;SDS011;6134;59.284;18.022;2023-04-01T06:53:10;2.78;;;1.10;;
12141;SDS011;6134;59.284;18.022;2023-04-01T06:56:00;1.00;;;0.90;;
12141;SDS011;6134;59.284;18.022;2023-04-01T06:58:58;2.80;;;0.93;;
12141;SDS011;6134;59.284;18.022;2023-04-01T07:01:29;1.40;;;1.10;;
12141;SDS011;6134;59.284;18.022;2023-04-01T07:04:00;1.20;;;0.90;;
12141;SDS011;6134;59.284;18.022;2023-04-01T07:06:31;2.38;;;0.93;;
12141;SDS011;6134;59.284;18.022;2023-04-01T07:09:03;1.67;;;1.17;;
12141;SDS011;6134;59.284;18.022;2023-04-01T07:11:53;1.88;;;0.90;;
12141;SDS011;6134;59.284;18.022;2023-04-01T07:15:02;5.30;;;2.22;;
12141;SDS011;6134;59.284;18.022;2023-04-01T07:17:32;1.35;;;1.13;;
12141;SDS011;6134;59.284;18.022;2023-04-01T07:20:03;1.27;;;1.10;;
12141;SDS011;6134;59.284;18.022;2023-04-01T07:22:35;3.17;;;1.00;;
12141;SDS011;6134;59.284;18.022;2023-04-01T07:25:29;1.23;;;0.90;;
12141;SDS011;6134;59.284;18.022;2023-04-01T07:28:22;1.95;;;0.98;;
12141;SDS011;6134;59.284;18.022;2023-04-01T07:31:05;4.15;;;1.30;;
12141;SDS011;6134;59.284;18.022;2023-04-01T07:33:38;1.48;;;1.10;;
12141;SDS011;6134;59.284;18.022;2023-04-01T07:36:08;1.75;;;0.80;;
12141;SDS011;6134;59.284;18.022;2023-04-01T07:38:40;2.60;;;0.88;;
12141;SDS011;6134;59.284;18.022;2023-04-01T07:41:21;1.33;;;0.90;;
12141;SDS011;6134;59.284;18.022;2023-04-01T07:43:54;2.35;;;0.82;;
12141;SDS011;6134;59.284;18.022;2023-04-01T07:46:41;1.33;;;1.00;;
12141;SDS011;6134;59.284;18.022;2023-04-01T07:49:15;1.10;;;1.00;;
12141;SDS011;6134;59.284;18.022;2023-04-01T07:51:46;1.30;;;1.02;;
12141;SDS011;6134;59.284;18.022;2023-04-01T07:54:21;1.60;;;0.93;;
12141;SDS011;6134;59.284;18.022;2023-04-01T07:56:54;1.25;;;0.95;;
12141;SDS011;6134;59.284;18.022;2023-04-01T07:59:43;1.90;;;0.98;;
12141;SDS011;6134;59.284;18.022;2023-04-01T08:02:27;3.80;;;1.38;;
12141;SDS011;6134;59.284;18.022;2023-04-01T08:05:01;2.60;;;0.93;;
12141;SDS011;6134;59.284;18.022;2023-04-01T08:07:34;1.67;;;1.00;;
12141;SDS011;6134;59.284;18.022;2023-04-01T08:10:23;1.50;;;1.00;;
12141;SDS011;6134;59.284;18.022;2023-04-01T08:13:13;5.68;;;1.25;;
12141;SDS011;6134;59.284;18.022;2023-04-01T08:16:06;1.80;;;0.90;;
12141;SDS011;6134;59.284;18.022;2023-04-01T08:18:46;2.33;;;1.05;;
12141;SDS011;6134;59.284;18.022;2023-04-01T08:21:20;1.27;;;1.00;;
12141;SDS011;6134;59.284;18.022;2023-04-01T08:23:51;1.58;;;0.80;;
12141;SDS011;6134;59.284;18.022;2023-04-01T08:26:23;3.47;;;1.33;;
12141;SDS011;6134;59.284;18.022;2023-04-01T08:28:57;1.25;;;1.10;;
12141;SDS011;6134;59.284;18.022;2023-04-01T08:31:32;3.47;;;1.23;;
12141;SDS011;6134;59.284;18.022;2023-04-01T08:34:04;4.13;;;1.25;;
12141;SDS011;6134;59.284;18.022;2023-04-01T08:36:36;1.65;;;1.02;;
12141;SDS011;6134;59.284;18.022;2023-04-01T08:39:13;1.98;;;1.13;;
12141;SDS011;6134;59.284;18.022;2023-04-01T08:44:58;2.50;;;1.00;;
12141;SDS011;6134;59.284;18.022;2023-04-01T08:47:39;1.40;;;1.00;;
12141;SDS011;6134;59.284;18.022;2023-04-01T08:53:26;2.58;;;1.05;;
12141;SDS011;6134;59.284;18.022;2023-04-01T08:56:03;5.70;;;1.25;;
12141;SDS011;6134;59.284;18.022;2023-04-01T08:58:40;1.15;;;1.02;;
12141;SDS011;6134;59.284;18.022;2023-04-01T09:01:25;5.78;;;1.00;;
12141;SDS011;6134;59.284;18.022;2023-04-01T09:03:58;2.33;;;0.98;;
12141;SDS011;6134;59.284;18.022;2023-04-01T09:06:35;1.75;;;1.00;;
12141;SDS011;6134;59.284;18.022;2023-04-01T09:09:14;1.90;;;1.00;;
12141;SDS011;6134;59.284;18.022;2023-04-01T09:14:41;3.38;;;1.17;;
12141;SDS011;6134;59.284;18.022;2023-04-01T09:17:35;3.47;;;1.02;;
12141;SDS011;6134;59.284;18.022;2023-04-01T09:20:13;4.10;;;1.10;;
12141;SDS011;6134;59.284;18.022;2023-04-01T09:23:00;2.40;;;1.13;;
12141;SDS011;6134;59.284;18.022;2023-04-01T09:25:47;1.77;;;0.90;;
12141;SDS011;6134;59.284;18.022;2023-04-01T09:28:20;5.50;;;1.33;;
12141;SDS011;6134;59.284;18.022;2023-04-01T09:30:56;3.80;;;0.90;;
12141;SDS011;6134;59.284;18.022;2023-04-01T09:36:19;2.38;;;0.90;;
12141;SDS011;6134;59.284;18.022;2023-04-01T09:38:54;3.05;;;1.17;;
12141;SDS011;6134;59.284;18.022;2023-04-01T09:41:29;2.17;;;0.88;;
12141;SDS011;6134;59.284;18.022;2023-04-01T09:44:21;1.50;;;0.93;;
12141;SDS011;6134;59.284;18.022;2023-04-01T09:47:09;0.95;;;0.73;;
12141;SDS011;6134;59.284;18.022;2023-04-01T09:50:03;1.10;;;0.77;;
12141;SDS011;6134;59.284;18.022;2023-04-01T09:52:43;1.45;;;0.80;;
12141;SDS011;6134;59.284;18.022;2023-04-01T09:55:43;2.13;;;0.93;;
12141;SDS011;6134;59.284;18.022;2023-04-01T09:58:25;3.83;;;0.90;;
12141;SDS011;6134;59.284;18.022;2023-04-01T10:01:36;2.72;;;0.85;;
12141;SDS011;6134;59.284;18.022;2023-04-01T10:07:17;0.90;;;0.77;;
12141;SDS011;6134;59.284;18.022;2023-04-01T10:12:56;1.40;;;0.90;;
12141;SDS011;6134;59.284;18.022;2023-04-01T10:15:34;2.42;;;0.77;;
12141;SDS011;6134;59.284;18.022;2023-04-01T10:21:06;1.25;;;0.70;;
12141;SDS011;6134;59.284;18.022;2023-04-01T10:26:39;1.85;;;0.52;;
12141;SDS011;6134;59.284;18.022;2023-04-01T10:29:39;1.73;;;0.77;;
12141;SDS011;6134;59.284;18.022;2023-04-01T10:32:20;0.73;;;0.63;;
12141;SDS011;6134;59.284;18.022;2023-04-01T10:40:44;1.05;;;0.88;;
12141;SDS011;6134;59.284;18.022;2023-04-01T10:52:31;1.67;;;0.88;;
12141;SDS011;6134;59.284;18.022;2023-04-01T10:58:35;1.85;;;0.82;;
12141;SDS011;6134;59.284;18.022;2023-04-01T11:01:59;2.47;;;0.60;;
12141;SDS011;6134;59.284;18.022;2023-04-01T11:19:21;3.80;;;0.40;;
12141;SDS011;6134;59.284;18.022;2023-04-01T11:22:08;2.40;;;0.60;;
12141;SDS011;6134;59.284;18.022;2023-04-01T11:24:50;4.25;;;0.75;;
12141;SDS011;6134;59.284;18.022;2023-04-01T11:27:39;4.15;;;0.73;;
12141;SDS011;6134;59.284;18.022;2023-04-01T11:30:13;3.25;;;0.80;;
12141;SDS011;6134;59.284;18.022;2023-04-01T11:32:57;0.75;;;0.57;;
12141;SDS011;6134;59.284;18.022;2023-04-01T11:35:38;0.40;;;0.40;;
12141;SDS011;6134;59.284;18.022;2023-04-01T11:38:20;1.80;;;0.70;;
12141;SDS011;6134;59.284;18.022;2023-04-01T11:40:53;1.85;;;0.60;;
12141;SDS011;6134;59.284;18.022;2023-04-01T11:44:11;0.95;;;0.65;;
12141;SDS011;6134;59.284;18.022;2023-04-01T11:47:03;1.55;;;0.57;;
12141;SDS011;6134;59.284;18.022;2023-04-01T11:49:36;0.65;;;0.60;;
12141;SDS011;6134;59.284;18.022;2023-04-01T11:55:18;1.15;;;0.55;;
12141;SDS011;6134;59.284;18.022;2023-04-01T11:57:56;0.57;;;0.57;;
12141;SDS011;6134;59.284;18.022;2023-04-01T12:03:37;2.25;;;0.70;;
12141;SDS011;6134;59.284;18.022;2023-04-01T12:06:11;1.95;;;0.85;;
12141;SDS011;6134;59.284;18.022;2023-04-01T12:08:44;0.50;;;0.47;;
12141;SDS011;6134;59.284;18.022;2023-04-01T12:11:22;2.55;;;0.70;;
12141;SDS011;6134;59.284;18.022;2023-04-01T12:13:55;0.40;;;0.40;;
12141;SDS011;6134;59.284;18.022;2023-04-01T12:16:32;1.25;;;0.60;;
12141;SDS011;6134;59.284;18.022;2023-04-01T12:19:04;0.60;;;0.52;;
12141;SDS011;6134;59.284;18.022;2023-04-01T12:21:41;2.05;;;0.80;;
12141;SDS011;6134;59.284;18.022;2023-04-01T12:24:15;0.68;;;0.60;;
12141;SDS011;6134;59.284;18.022;2023-04-01T12:26:54;0.60;;;0.50;;
12141;SDS011;6134;59.284;18.022;2023-04-01T12:32:09;0.77;;;0.60;;
12141;SDS011;6134;59.284;18.022;2023-04-01T12:34:49;0.70;;;0.65;;
12141;SDS011;6134;59.284;18.022;2023-04-01T12:37:27;1.30;;;0.80;;
12141;SDS011;6134;59.284;18.022;2023-04-01T12:40:00;1.17;;;0.70;;
12141;SDS011;6134;59.284;18.022;2023-04-01T12:42:36;2.55;;;0.60;;
12141;SDS011;6134;59.284;18.022;2023-04-01T12:45:11;3.13;;;0.70;;
12141;SDS011;6134;59.284;18.022;2023-04-01T12:47:57;0.68;;;0.52;;
12141;SDS011;6134;59.284;18.022;2023-04-01T12:50:34;2.75;;;0.70;;
12141;SDS011;6134;59.284;18.022;2023-04-01T12:55:49;3.72;;;0.80;;
12141;SDS011;6134;59.284;18.022;2023-04-01T13:01:13;0.77;;;0.50;;
12141;SDS011;6134;59.284;18.022;2023-04-01T13:06:49;4.10;;;0.73;;
12141;SDS011;6134;59.284;18.022;2023-04-01T13:09:24;0.50;;;0.50;;
12141;SDS011;6134;59.284;18.022;2023-04-01T13:12:02;2.08;;;0.70;;
12141;SDS011;6134;59.284;18.022;2023-04-01T13:14:45;1.15;;;0.70;;
12141;SDS011;6134;59.284;18.022;2023-04-01T13:17:18;0.95;;;0.60;;
12141;SDS011;6134;59.284;18.022;2023-04-01T13:19:49;0.82;;;0.60;;
12141;SDS011;6134;59.284;18.022;2023-04-01T13:22:34;1.08;;;0.65;;
12141;SDS011;6134;59.284;18.022;2023-04-01T13:25:04;0.98;;;0.60;;
12141;SDS011;6134;59.284;18.022;2023-04-01T13:27:35;1.30;;;0.60;;
12141;SDS011;6134;59.284;18.022;2023-04-01T13:30:16;3.35;;;0.60;;
12141;SDS011;6134;59.284;18.022;2023-04-01T13:32:49;1.13;;;0.60;;
12141;SDS011;6134;59.284;18.022;2023-04-01T13:35:25;1.95;;;0.60;;
12141;SDS011;6134;59.284;18.022;2023-04-01T13:38:03;1.55;;;0.77;;
12141;SDS011;6134;59.284;18.022;2023-04-01T13:40:39;0.50;;;0.50;;
12141;SDS011;6134;59.284;18.022;2023-04-01T13:43:28;2.13;;;0.63;;
12141;SDS011;6134;59.284;18.022;2023-04-01T13:46:19;1.55;;;0.63;;
12141;SDS011;6134;59.284;18.022;2023-04-01T13:54:33;1.23;;;0.77;;
12141;SDS011;6134;59.284;18.022;2023-04-01T13:57:12;2.67;;;0.70;;
12141;SDS011;6134;59.284;18.022;2023-04-01T13:59:56;1.13;;;0.60;;
12141;SDS011;6134;59.284;18.022;2023-04-01T14:02:31;0.50;;;0.50;;
12141;SDS011;6134;59.284;18.022;2023-04-01T14:05:10;1.33;;;0.90;;
12141;SDS011;6134;59.284;18.022;2023-04-01T14:07:48;2.35;;;1.00;;
12141;SDS011;6134;59.284;18.022;2023-04-01T14:10:21;1.80;;;0.60;;
12141;SDS011;6134;59.284;18.022;2023-04-01T14:12:56;3.03;;;0.60;;
12141;SDS011;6134;59.284;18.022;2023-04-01T14:15:38;1.80;;;0.88;;
12141;SDS011;6134;59.284;18.022;2023-04-01T14:18:22;1.58;;;0.77;;
12141;SDS011;6134;59.284;18.022;2023-04-01T14:20:59;2.35;;;0.70;;
12141;SDS011;6134;59.284;18.022;2023-04-01T14:23:38;2.92;;;0.70;;
12141;SDS011;6134;59.284;18.022;2023-04-01T14:26:18;0.73;;;0.70;;
12141;SDS011;6134;59.284;18.022;2023-04-01T14:28:53;0.82;;;0.63;;
12141;SDS011;6134;59.284;18.022;2023-04-01T14:31:27;0.70;;;0.70;;
12141;SDS011;6134;59.284;18.022;2023-04-01T14:34:00;1.50;;;0.60;;
12141;SDS011;6134;59.284;18.022;2023-04-01T14:36:36;1.75;;;0.80;;
12141;SDS011;6134;59.284;18.022;2023-04-01T14:42:16;2.45;;;0.68;;
12141;SDS011;6134;59.284;18.022;2023-04-01T14:44:51;1.13;;;0.70;;
12141;SDS011;6134;59.284;18.022;2023-04-01T14:47:33;0.90;;;0.60;;
12141;SDS011;6134;59.284;18.022;2023-04-01T14:50:06;1.50;;;0.50;;
12141;SDS011;6134;59.284;18.022;2023-04-01T14:52:38;1.30;;;0.60;;
12141;SDS011;6134;59.284;18.022;2023-04-01T14:55:15;1.33;;;0.70;;
12141;SDS011;6134;59.284;18.022;2023-04-01T14:57:59;1.83;;;0.57;;
12141;SDS011;6134;59.284;18.022;2023-04-01T15:00:28;2.17;;;0.90;;
12141;SDS011;6134;59.284;18.022;2023-04-01T15:03:11;1.50;;;0.63;;
12141;SDS011;6134;59.284;18.022;2023-04-01T15:05:44;1.92;;;0.70;;
12141;SDS011;6134;59.284;18.022;2023-04-01T15:08:16;2.15;;;0.70;;
12141;SDS011;6134;59.284;18.022;2023-04-01T15:13:41;2.08;;;0.70;;
12141;SDS011;6134;59.284;18.022;2023-04-01T15:16:14;5.75;;;0.90;;
12141;SDS011;6134;59.284;18.022;2023-04-01T15:18:49;2.42;;;0.77;;
12141;SDS011;6134;59.284;18.022;2023-04-01T15:21:24;1.85;;;1.08;;
12141;SDS011;6134;59.284;18.022;2023-04-01T15:23:56;1.80;;;0.77;;
12141;SDS011;6134;59.284;18.022;2023-04-01T15:26:31;4.05;;;0.93;;
12141;SDS011;6134;59.284;18.022;2023-04-01T15:29:06;0.95;;;0.70;;
12141;SDS011;6134;59.284;18.022;2023-04-01T15:31:42;1.02;;;0.70;;
12141;SDS011;6134;59.284;18.022;2023-04-01T15:34:17;1.30;;;0.73;;
12141;SDS011;6134;59.284;18.022;2023-04-01T15:36:51;2.58;;;0.80;;
12141;SDS011;6134;59.284;18.022;2023-04-01T15:39:22;3.17;;;0.90;;
12141;SDS011;6134;59.284;18.022;2023-04-01T15:41:58;1.67;;;0.90;;
12141;SDS011;6134;59.284;18.022;2023-04-01T15:44:40;1.05;;;0.63;;
12141;SDS011;6134;59.284;18.022;2023-04-01T15:47:24;0.95;;;0.60;;
12141;SDS011;6134;59.284;18.022;2023-04-01T15:49:55;1.05;;;0.70;;
12141;SDS011;6134;59.284;18.022;2023-04-01T15:52:24;3.75;;;1.25;;
12141;SDS011;6134;59.284;18.022;2023-04-01T15:55:12;2.40;;;0.80;;
12141;SDS011;6134;59.284;18.022;2023-04-01T15:57:45;3.28;;;1.10;;
12141;SDS011;6134;59.284;18.022;2023-04-01T16:00:27;3.28;;;0.70;;
12141;SDS011;6134;59.284;18.022;2023-04-01T16:03:10;1.25;;;0.90;;
12141;SDS011;6134;59.284;18.022;2023-04-01T16:05:48;2.08;;;0.85;;
12141;SDS011;6134;59.284;18.022;2023-04-01T16:08:37;2.28;;;0.90;;
12141;SDS011;6134;59.284;18.022;2023-04-01T16:11:13;2.35;;;0.70;;
12141;SDS011;6134;59.284;18.022;2023-04-01T16:13:46;3.65;;;0.95;;
12141;SDS011;6134;59.284;18.022;2023-04-01T16:16:22;4.60;;;1.23;;
12141;SDS011;6134;59.284;18.022;2023-04-01T16:18:57;3.78;;;1.05;;
12141;SDS011;6134;59.284;18.022;2023-04-01T16:21:37;2.67;;;0.95;;
12141;SDS011;6134;59.284;18.022;2023-04-01T16:24:10;1.08;;;0.80;;
12141;SDS011;6134;59.284;18.022;2023-04-01T16:26:43;2.83;;;0.80;;
12141;SDS011;6134;59.284;18.022;2023-04-01T16:29:17;1.08;;;0.70;;
12141;SDS011;6134;59.284;18.022;2023-04-01T16:31:50;1.48;;;0.90;;
12141;SDS011;6134;59.284;18.022;2023-04-01T16:34:24;2.03;;;0.80;;
12141;SDS011;6134;59.284;18.022;2023-04-01T16:36:58;1.55;;;0.90;;
12141;SDS011;6134;59.284;18.022;2023-04-01T16:39:30;0.63;;;0.63;;
12141;SDS011;6134;59.284;18.022;2023-04-01T16:42:14;1.95;;;0.80;;
12141;SDS011;6134;59.284;18.022;2023-04-01T16:44:47;2.78;;;1.02;;
12141;SDS011;6134;59.284;18.022;2023-04-01T16:47:19;3.40;;;1.40;;
12141;SDS011;6134;59.284;18.022;2023-04-01T16:49:50;1.67;;;0.98;;
12141;SDS011;6134;59.284;18.022;2023-04-01T16:52:30;2.95;;;1.10;;
12141;SDS011;6134;59.284;18.022;2023-04-01T16:54:59;5.55;;;0.90;;
12141;SDS011;6134;59.284;18.022;2023-04-01T16:57:31;2.10;;;1.20;;
12141;SDS011;6134;59.284;18.022;2023-04-01T17:00:14;1.15;;;0.70;;
12141;SDS011;6134;59.284;18.022;2023-04-01T17:02:45;1.73;;;1.13;;
12141;SDS011;6134;59.284;18.022;2023-04-01T17:05:16;3.13;;;0.93;;
12141;SDS011;6134;59.284;18.022;2023-04-01T17:07:47;1.63;;;0.77;;
12141;SDS011;6134;59.284;18.022;2023-04-01T17:10:28;3.53;;;1.02;;